sensor_id;sensor_type;location;lat;lon;timestamp;pressure;altitude;pressure_sealevel;temperature;humidity
18900;BME280;9582;52.018;6.306;2023-02-10T00:01:59;103404.78;;;2.20;100.00
18900;BME280;9582;52.018;6.306;2023-02-10T00:04:29;103402.03;;;2.14;100.00
18900;BME280;9582;52.018;6.306;2023-02-10T00:06:58;103405.34;;;2.10;100.00
18900;BME280;9582;52.018;6.306;2023-02-10T00:09:34;103394.03;;;2.07;100.00
18900;BME280;9582;52.018;6.306;2023-02-10T00:12:06;103402.66;;;2.07;100.00
18900;BME280;9582;52.018;6.306;2023-02-10T00:14:40;103402.66;;;2.07;100.00
18900;BME280;9582;52.018;6.306;2023-02-10T00:17:08;103406.84;;;2.04;100.00
18900;BME280;9582;52.018;6.306;2023-02-10T00:19:40;103415.44;;;2.03;100.00
18900;BME280;9582;52.018;6.306;2023-02-10T00:22:12;103414.44;;;1.99;100.00
18900;BME280;9582;52.018;6.306;2023-02-10T00:24:42;103425.69;;;2.01;100.00
18900;BME280;9582;52.018;6.306;2023-02-10T00:27:08;103419.75;;;2.04;100.00
18900;BME280;9582;52.018;6.306;2023-02-10T00:29:35;103413.03;;;2.09;100.00
18900;BME280;9582;52.018;6.306;2023-02-10T00:32:07;103417.94;;;2.01;100.00
18900;BME280;9582;52.018;6.306;2023-02-10T00:34:41;103420.09;;;2.14;100.00
18900;BME280;9582;52.018;6.306;2023-02-10T00:37:13;103426.44;;;1.97;100.00
18900;BME280;9582;52.018;6.306;2023-02-10T00:39:46;103422.91;;;1.95;100.00
18900;BME280;9582;52.018;6.306;2023-02-10T00:42:15;103427.28;;;1.98;100.00
18900;BME280;9582;52.018;6.306;2023-02-10T00:44:44;103430.84;;;2.01;100.00
18900;BME280;9582;52.018;6.306;2023-02-10T00:47:18;103424.09;;;2.05;100.00
18900;BME280;9582;52.018;6.306;2023-02-10T00:49:49;103419.91;;;2.08;100.00
18900;BME280;9582;52.018;6.306;2023-02-10T00:52:23;103432.94;;;2.13;100.00
18900;BME280;9582;52.018;6.306;2023-02-10T00:54:54;103427.69;;;2.10;100.00
18900;BME280;9582;52.018;6.306;2023-02-10T00:57:22;103429.53;;;2.14;100.00
18900;BME280;9582;52.018;6.306;2023-02-10T00:59:48;103421.81;;;2.14;100.00
18900;BME280;9582;52.018;6.306;2023-02-10T01:02:23;103434.56;;;2.38;100.00
18900;BME280;9582;52.018;6.306;2023-02-10T01:04:55;103427.28;;;2.24;100.00
18900;BME280;9582;52.018;6.306;2023-02-10T01:07:25;103438.97;;;2.13;100.00
18900;BME280;9582;52.018;6.306;2023-02-10T01:10:08;103435.16;;;2.29;100.00
18900;BME280;9582;52.018;6.306;2023-02-10T01:12:35;103438.59;;;2.28;100.00
18900;BME280;9582;52.018;6.306;2023-02-10T01:15:08;103439.28;;;2.22;100.00
18900;BME280;9582;52.018;6.306;2023-02-10T01:17:38;103441.88;;;2.22;100.00
18900;BME280;9582;52.018;6.306;2023-02-10T01:20:07;103445.31;;;2.23;100.00
18900;BME280;9582;52.018;6.306;2023-02-10T01:22:35;103444.72;;;2.31;100.00
18900;BME280;9582;52.018;6.306;2023-02-10T01:25:08;103439.59;;;2.33;100.00
18900;BME280;9582;52.018;6.306;2023-02-10T01:27:43;103443.97;;;2.36;100.00
18900;BME280;9582;52.018;6.306;2023-02-10T01:30:14;103438.59;;;2.28;100.00
18900;BME280;9582;52.018;6.306;2023-02-10T01:32:46;103443.09;;;2.63;100.00
18900;BME280;9582;52.018;6.306;2023-02-10T01:35:17;103444.06;;;2.37;100.00
18900;BME280;9582;52.018;6.306;2023-02-10T01:37:43;103447.47;;;2.38;100.00
18900;BME280;9582;52.018;6.306;2023-02-10T01:40:16;103453.63;;;2.41;100.00
18900;BME280;9582;52.018;6.306;2023-02-10T01:42:46;103444.78;;;2.33;100.00
18900;BME280;9582;52.018;6.306;2023-02-10T01:45:18;103442.78;;;2.24;100.00
18900;BME280;9582;52.018;6.306;2023-02-10T01:47:52;103452.44;;;2.31;100.00
18900;BME280;9582;52.018;6.306;2023-02-10T01:50:22;103439.22;;;2.49;100.00
18900;BME280;9582;52.018;6.306;2023-02-10T01:52:54;103438.03;;;2.38;100.00
18900;BME280;9582;52.018;6.306;2023-02-10T01:55:25;103444.19;;;2.42;100.00
18900;BME280;9582;52.018;6.306;2023-02-10T01:58:05;103441.81;;;2.49;100.00
18900;BME280;9582;52.018;6.306;2023-02-10T02:00:43;103441.78;;;2.48;100.00
18900;BME280;9582;52.018;6.306;2023-02-10T02:03:14;103435.22;;;2.59;100.00
18900;BME280;9582;52.018;6.306;2023-02-10T02:05:46;103433.34;;;2.53;100.00
18900;BME280;9582;52.018;6.306;2023-02-10T02:08:16;103439.41;;;2.55;100.00
18900;BME280;9582;52.018;6.306;2023-02-10T02:11:06;103446.34;;;2.56;100.00
18900;BME280;9582;52.018;6.306;2023-02-10T02:13:52;103428.03;;;2.49;100.00
18900;BME280;9582;52.018;6.306;2023-02-10T02:16:29;103429.78;;;2.50;100.00
18900;BME280;9582;52.018;6.306;2023-02-10T02:19:15;103445.25;;;2.48;100.00
18900;BME280;9582;52.018;6.306;2023-02-10T02:24:58;103444.72;;;2.31;100.00
18900;BME280;9582;52.018;6.306;2023-02-10T02:27:56;103449.81;;;2.28;100.00
18900;BME280;9582;52.018;6.306;2023-02-10T02:30:53;103446.19;;;2.23;100.00
18900;BME280;9582;52.018;6.306;2023-02-10T02:33:28;103445.38;;;2.26;100.00
18900;BME280;9582;52.018;6.306;2023-02-10T02:36:01;103451.25;;;2.20;100.00
18900;BME280;9582;52.018;6.306;2023-02-10T02:38:37;103448.56;;;2.17;100.00
18900;BME280;9582;52.018;6.306;2023-02-10T02:41:08;103451.06;;;2.14;100.00
18900;BME280;9582;52.018;6.306;2023-02-10T02:43:41;103437.19;;;2.11;100.00
18900;BME280;9582;52.018;6.306;2023-02-10T02:46:13;103435.31;;;2.07;100.00
18900;BME280;9582;52.018;6.306;2023-02-10T02:48:57;103440.25;;;1.99;100.00
18900;BME280;9582;52.018;6.306;2023-02-10T02:51:35;103444.13;;;1.87;100.00
18900;BME280;9582;52.018;6.306;2023-02-10T02:54:12;103450.22;;;1.89;100.00
18900;BME280;9582;52.018;6.306;2023-02-10T02:56:43;103457.66;;;2.06;100.00
18900;BME280;9582;52.018;6.306;2023-02-10T02:59:18;103458.31;;;1.99;100.00
18900;BME280;9582;52.018;6.306;2023-02-10T03:01:49;103461.34;;;1.86;100.00
18900;BME280;9582;52.018;6.306;2023-02-10T03:04:30;103463.84;;;1.85;100.00
18900;BME280;9582;52.018;6.306;2023-02-10T03:07:07;103466.38;;;1.83;100.00
18900;BME280;9582;52.018;6.306;2023-02-10T03:09:34;103466.97;;;1.74;100.00
18900;BME280;9582;52.018;6.306;2023-02-10T03:12:03;103467.00;;;1.76;100.00
18900;BME280;9582;52.018;6.306;2023-02-10T03:14:30;103463.50;;;1.74;100.00
18900;BME280;9582;52.018;6.306;2023-02-10T03:17:06;103457.09;;;1.63;100.00
18900;BME280;9582;52.018;6.306;2023-02-10T03:19:36;103461.22;;;1.58;100.00
18900;BME280;9582;52.018;6.306;2023-02-10T03:22:10;103460.66;;;1.66;100.00
18900;BME280;9582;52.018;6.306;2023-02-10T03:24:43;103465.66;;;1.87;100.00
18900;BME280;9582;52.018;6.306;2023-02-10T03:27:11;103463.81;;;1.83;100.00
18900;BME280;9582;52.018;6.306;2023-02-10T03:29:40;103466.53;;;1.62;100.00
18900;BME280;9582;52.018;6.306;2023-02-10T03:32:20;103459.00;;;1.68;100.00
18900;BME280;9582;52.018;6.306;2023-02-10T03:34:58;103455.84;;;1.52;100.00
18900;BME280;9582;52.018;6.306;2023-02-10T03:37:32;103461.94;;;1.54;100.00
18900;BME280;9582;52.018;6.306;2023-02-10T03:40:02;103465.22;;;1.50;100.00
18900;BME280;9582;52.018;6.306;2023-02-10T03:42:31;103468.56;;;1.47;100.00
18900;BME280;9582;52.018;6.306;2023-02-10T03:45:02;103475.38;;;1.45;100.00
18900;BME280;9582;52.018;6.306;2023-02-10T03:47:32;103462.34;;;1.41;100.00
18900;BME280;9582;52.018;6.306;2023-02-10T03:50:02;103468.00;;;1.31;100.00
18900;BME280;9582;52.018;6.306;2023-02-10T03:52:29;103470.56;;;1.31;100.00
18900;BME280;9582;52.018;6.306;2023-02-10T03:54:59;103468.72;;;1.27;100.00
18900;BME280;9582;52.018;6.306;2023-02-10T03:57:28;103468.84;;;1.30;100.00
18900;BME280;9582;52.018;6.306;2023-02-10T03:59:59;103463.56;;;1.27;100.00
18900;BME280;9582;52.018;6.306;2023-02-10T04:02:38;103463.75;;;1.33;100.00
18900;BME280;9582;52.018;6.306;2023-02-10T04:05:12;103457.63;;;1.29;100.00
18900;BME280;9582;52.018;6.306;2023-02-10T04:07:46;103458.88;;;1.40;100.00
18900;BME280;9582;52.018;6.306;2023-02-10T04:10:17;103460.59;;;1.40;100.00
18900;BME280;9582;52.018;6.306;2023-02-10T04:12:49;103459.81;;;1.42;100.00
18900;BME280;9582;52.018;6.306;2023-02-10T04:15:19;103457.38;;;1.47;100.00
18900;BME280;9582;52.018;6.306;2023-02-10T04:17:46;103459.88;;;1.44;100.00
18900;BME280;9582;52.018;6.306;2023-02-10T04:20:21;103460.13;;;1.51;100.00
18900;BME280;9582;52.018;6.306;2023-02-10T04:22:54;103462.16;;;1.60;100.00
18900;BME280;9582;52.018;6.306;2023-02-10T04:25:20;103461.94;;;1.54;100.00
18900;BME280;9582;52.018;6.306;2023-02-10T04:27:50;103466.94;;;1.49;100.00
18900;BME280;9582;52.018;6.306;2023-02-10T04:30:22;103462.47;;;1.44;100.00
18900;BME280;9582;52.018;6.306;2023-02-10T04:32:53;103456.53;;;1.46;100.00
18900;BME280;9582;52.018;6.306;2023-02-10T04:35:25;103462.34;;;1.41;100.00
18900;BME280;9582;52.018;6.306;2023-02-10T04:37:53;103461.19;;;1.33;100.00
18900;BME280;9582;52.018;6.306;2023-02-10T04:40:23;103468.91;;;1.33;100.00
18900;BME280;9582;52.018;6.306;2023-02-10T04:42:57;103473.03;;;1.28;100.00
18900;BME280;9582;52.018;6.306;2023-02-10T04:45:28;103477.25;;;1.26;100.00
18900;BME280;9582;52.018;6.306;2023-02-10T04:47:57;103477.97;;;1.22;100.00
18900;BME280;9582;52.018;6.306;2023-02-10T04:50:42;103475.94;;;1.13;100.00
18900;BME280;9582;52.018;6.306;2023-02-10T04:53:17;103489.59;;;1.10;100.00
18900;BME280;9582;52.018;6.306;2023-02-10T04:55:46;103491.06;;;1.28;100.00
18900;BME280;9582;52.018;6.306;2023-02-10T04:58:16;103499.66;;;1.27;100.00
18900;BME280;9582;52.018;6.306;2023-02-10T05:00:45;103504.97;;;1.31;100.00
18900;BME280;9582;52.018;6.306;2023-02-10T05:03:15;103508.75;;;1.41;100.00
18900;BME280;9582;52.018;6.306;2023-02-10T05:05:42;103509.44;;;1.13;100.00
18900;BME280;9582;52.018;6.306;2023-02-10T05:08:09;103505.66;;;1.03;100.00
18900;BME280;9582;52.018;6.306;2023-02-10T05:10:38;103509.81;;;1.00;100.00
18900;BME280;9582;52.018;6.306;2023-02-10T05:13:05;103506.78;;;1.10;100.00
18900;BME280;9582;52.018;6.306;2023-02-10T05:15:38;103503.91;;;1.02;100.00
18900;BME280;9582;52.018;6.306;2023-02-10T05:18:08;103502.69;;;0.93;100.00
18900;BME280;9582;52.018;6.306;2023-02-10T05:20:39;103500.44;;;1.02;100.00
18900;BME280;9582;52.018;6.306;2023-02-10T05:23:07;103497.69;;;0.97;100.00
18900;BME280;9582;52.018;6.306;2023-02-10T05:25:38;103497.59;;;0.94;100.00
18900;BME280;9582;52.018;6.306;2023-02-10T05:28:07;103496.78;;;0.95;100.00
18900;BME280;9582;52.018;6.306;2023-02-10T05:30:37;103490.78;;;0.96;100.00
18900;BME280;9582;52.018;6.306;2023-02-10T05:33:03;103485.50;;;0.93;100.00
18900;BME280;9582;52.018;6.306;2023-02-10T05:35:35;103490.63;;;0.92;100.00
18900;BME280;9582;52.018;6.306;2023-02-10T05:38:01;103487.88;;;0.87;100.00
18900;BME280;9582;52.018;6.306;2023-02-10T05:40:30;103494.78;;;0.88;100.00
18900;BME280;9582;52.018;6.306;2023-02-10T05:42:59;103493.97;;;0.67;100.00
18900;BME280;9582;52.018;6.306;2023-02-10T05:45:25;103495.84;;;0.71;100.00
18900;BME280;9582;52.018;6.306;2023-02-10T05:47:52;103496.66;;;0.70;100.00
18900;BME280;9582;52.018;6.306;2023-02-10T05:50:19;103497.47;;;0.69;100.00
18900;BME280;9582;52.018;6.306;2023-02-10T05:53:13;103498.38;;;0.70;100.00
18900;BME280;9582;52.018;6.306;2023-02-10T05:55:44;103506.25;;;0.74;100.00
18900;BME280;9582;52.018;6.306;2023-02-10T05:58:13;103501.22;;;0.77;100.00
18900;BME280;9582;52.018;6.306;2023-02-10T06:00:42;103498.66;;;0.77;100.00
18900;BME280;9582;52.018;6.306;2023-02-10T06:03:12;103493.38;;;0.74;100.00
18900;BME280;9582;52.018;6.306;2023-02-10T06:05:42;103500.28;;;0.75;100.00
18900;BME280;9582;52.018;6.306;2023-02-10T06:08:15;103494.34;;;0.76;100.00
18900;BME280;9582;52.018;6.306;2023-02-10T06:10:43;103486.38;;;0.70;100.00
18900;BME280;9582;52.018;6.306;2023-02-10T06:13:12;103491.53;;;0.70;100.00
18900;BME280;9582;52.018;6.306;2023-02-10T06:15:48;103489.06;;;0.73;100.00
18900;BME280;9582;52.018;6.306;2023-02-10T06:18:15;103489.09;;;0.75;100.00
18900;BME280;9582;52.018;6.306;2023-02-10T06:20:41;103483.16;;;0.76;100.00
18900;BME280;9582;52.018;6.306;2023-02-10T06:23:09;103483.19;;;0.77;100.00
18900;BME280;9582;52.018;6.306;2023-02-10T06:25:40;103490.91;;;0.77;100.00
18900;BME280;9582;52.018;6.306;2023-02-10T06:28:12;103484.03;;;0.76;100.00
18900;BME280;9582;52.018;6.306;2023-02-10T06:30:43;103486.53;;;0.75;100.00
18900;BME280;9582;52.018;6.306;2023-02-10T06:33:13;103485.53;;;0.71;100.00
18900;BME280;9582;52.018;6.306;2023-02-10T06:35:45;103492.31;;;0.69;100.00
18900;BME280;9582;52.018;6.306;2023-02-10T06:38:14;103495.78;;;0.70;100.00
18900;BME280;9582;52.018;6.306;2023-02-10T06:40:49;103495.72;;;0.68;100.00
18900;BME280;9582;52.018;6.306;2023-02-10T06:43:20;103491.44;;;0.69;100.00
18900;BME280;9582;52.018;6.306;2023-02-10T06:45:46;103492.31;;;0.69;100.00
18900;BME280;9582;52.018;6.306;2023-02-10T06:48:21;103503.50;;;0.70;100.00
18900;BME280;9582;52.018;6.306;2023-02-10T06:50:47;103497.06;;;0.58;100.00
18900;BME280;9582;52.018;6.306;2023-02-10T06:53:20;103506.66;;;0.63;100.00
18900;BME280;9582;52.018;6.306;2023-02-10T06:55:49;103508.25;;;0.59;100.00
18900;BME280;9582;52.018;6.306;2023-02-10T06:58:17;103503.03;;;0.57;100.00
18900;BME280;9582;52.018;6.306;2023-02-10T07:00:55;103498.16;;;0.65;100.00
18900;BME280;9582;52.018;6.306;2023-02-10T07:03:26;103498.38;;;0.93;100.00
18900;BME280;9582;52.018;6.306;2023-02-10T07:06:00;103498.00;;;0.83;100.00
18900;BME280;9582;52.018;6.306;2023-02-10T07:08:28;103508.13;;;0.78;100.00
18900;BME280;9582;52.018;6.306;2023-02-10T07:10:54;103519.25;;;0.77;100.00
18900;BME280;9582;52.018;6.306;2023-02-10T07:13:24;103520.25;;;0.81;100.00
18900;BME280;9582;52.018;6.306;2023-02-10T07:15:53;103518.69;;;0.84;100.00
18900;BME280;9582;52.018;6.306;2023-02-10T07:18:22;103522.31;;;0.89;100.00
18900;BME280;9582;52.018;6.306;2023-02-10T07:20:51;103532.59;;;0.89;100.00
18900;BME280;9582;52.018;6.306;2023-02-10T07:23:18;103528.03;;;1.04;100.00
18900;BME280;9582;52.018;6.306;2023-02-10T07:25:45;103531.06;;;0.94;100.00
18900;BME280;9582;52.018;6.306;2023-02-10T07:28:13;103531.19;;;0.97;100.00
18900;BME280;9582;52.018;6.306;2023-02-10T07:30:43;103527.81;;;0.98;100.00
18900;BME280;9582;52.018;6.306;2023-02-10T07:33:13;103534.69;;;0.99;100.00
18900;BME280;9582;52.018;6.306;2023-02-10T07:35:45;103527.81;;;0.98;100.00
18900;BME280;9582;52.018;6.306;2023-02-10T07:38:12;103532.84;;;0.95;100.00
18900;BME280;9582;52.018;6.306;2023-02-10T07:40:40;103528.38;;;0.91;100.00
18900;BME280;9582;52.018;6.306;2023-02-10T07:43:09;103525.88;;;0.93;100.00
18900;BME280;9582;52.018;6.306;2023-02-10T07:45:45;103532.84;;;0.95;100.00
18900;BME280;9582;52.018;6.306;2023-02-10T07:48:14;103524.38;;;0.99;100.00
18900;BME280;9582;52.018;6.306;2023-02-10T07:50:46;103532.34;;;1.05;100.00
18900;BME280;9582;52.018;6.306;2023-02-10T07:53:16;103544.53;;;1.09;100.00
18900;BME280;9582;52.018;6.306;2023-02-10T07:55:48;103543.81;;;1.13;100.00
18900;BME280;9582;52.018;6.306;2023-02-10T07:58:19;103549.22;;;1.20;100.00
18900;BME280;9582;52.018;6.306;2023-02-10T08:00:52;103549.41;;;1.24;100.00
18900;BME280;9582;52.018;6.306;2023-02-10T08:03:20;103550.78;;;1.38;100.00
18900;BME280;9582;52.018;6.306;2023-02-10T08:05:47;103544.44;;;1.30;100.00
18900;BME280;9582;52.018;6.306;2023-02-10T08:08:19;103559.13;;;1.33;100.00
18900;BME280;9582;52.018;6.306;2023-02-10T08:10:50;103557.50;;;1.35;100.00
18900;BME280;9582;52.018;6.306;2023-02-10T08:13:24;103567.06;;;1.37;100.00
18900;BME280;9582;52.018;6.306;2023-02-10T08:15:58;103574.84;;;1.39;100.00
18900;BME280;9582;52.018;6.306;2023-02-10T08:18:27;103577.41;;;1.39;100.00
18900;BME280;9582;52.018;6.306;2023-02-10T08:20:59;103576.72;;;1.43;100.00
18900;BME280;9582;52.018;6.306;2023-02-10T08:23:25;103571.78;;;1.49;100.00
18900;BME280;9582;52.018;6.306;2023-02-10T08:25:54;103588.13;;;1.49;100.00
18900;BME280;9582;52.018;6.306;2023-02-10T08:28:25;103587.41;;;1.53;100.00
18900;BME280;9582;52.018;6.306;2023-02-10T08:31:05;103594.38;;;1.56;100.00
18900;BME280;9582;52.018;6.306;2023-02-10T08:33:35;103602.22;;;1.59;100.00
18900;BME280;9582;52.018;6.306;2023-02-10T08:36:06;103592.91;;;1.62;100.00
18900;BME280;9582;52.018;6.306;2023-02-10T08:38:40;103590.59;;;1.70;100.00
18900;BME280;9582;52.018;6.306;2023-02-10T08:41:12;103583.63;;;1.67;100.00
18900;BME280;9582;52.018;6.306;2023-02-10T08:43:42;103575.00;;;1.91;100.00
18900;BME280;9582;52.018;6.306;2023-02-10T08:46:20;103574.56;;;2.02;100.00
18900;BME280;9582;52.018;6.306;2023-02-10T08:48:47;103578.94;;;2.05;100.00
18900;BME280;9582;52.018;6.306;2023-02-10T08:51:17;103573.88;;;2.08;100.00
18900;BME280;9582;52.018;6.306;2023-02-10T08:53:48;103569.63;;;2.10;100.00
18900;BME280;9582;52.018;6.306;2023-02-10T08:56:17;103583.06;;;2.00;100.00
18900;BME280;9582;52.018;6.306;2023-02-10T08:58:44;103575.56;;;1.82;100.00
18900;BME280;9582;52.018;6.306;2023-02-10T09:01:17;103576.88;;;1.95;100.00
18900;BME280;9582;52.018;6.306;2023-02-10T09:03:45;103572.69;;;1.98;100.00
18900;BME280;9582;52.018;6.306;2023-02-10T09:06:15;103570.28;;;2.03;100.00
18900;BME280;9582;52.018;6.306;2023-02-10T09:08:51;103573.53;;;1.97;100.00
18900;BME280;9582;52.018;6.306;2023-02-10T09:11:21;103574.66;;;2.05;100.00
18900;BME280;9582;52.018;6.306;2023-02-10T09:13:49;103580.69;;;2.06;100.00
18900;BME280;9582;52.018;6.306;2023-02-10T09:16:19;103575.81;;;2.15;100.00
18900;BME280;9582;52.018;6.306;2023-02-10T09:18:54;103583.09;;;2.26;100.00
18900;BME280;9582;52.018;6.306;2023-02-10T09:21:22;103581.66;;;2.34;100.00
18900;BME280;9582;52.018;6.306;2023-02-10T09:23:52;103580.38;;;2.47;100.00
18900;BME280;9582;52.018;6.306;2023-02-10T09:26:18;103584.41;;;2.39;100.00
18900;BME280;9582;52.018;6.306;2023-02-10T09:28:48;103587.13;;;2.44;100.00
18900;BME280;9582;52.018;6.306;2023-02-10T09:31:23;103594.41;;;2.55;100.00
18900;BME280;9582;52.018;6.306;2023-02-10T09:33:53;103595.28;;;2.56;100.00
18900;BME280;9582;52.018;6.306;2023-02-10T09:36:24;103594.53;;;2.60;100.00
18900;BME280;9582;52.018;6.306;2023-02-10T09:38:58;103597.31;;;2.66;100.00
18900;BME280;9582;52.018;6.306;2023-02-10T09:41:40;103597.22;;;2.63;100.00
18900;BME280;9582;52.018;6.306;2023-02-10T09:44:14;103592.25;;;2.69;100.00
18900;BME280;9582;52.018;6.306;2023-02-10T09:46:49;103592.41;;;2.73;100.00
18900;BME280;9582;52.018;6.306;2023-02-10T09:49:43;103593.56;;;2.83;100.00
18900;BME280;9582;52.018;6.306;2023-02-10T09:52:25;103593.16;;;2.98;100.00
18900;BME280;9582;52.018;6.306;2023-02-10T09:54:57;103597.59;;;3.02;100.00
18900;BME280;9582;52.018;6.306;2023-02-10T09:57:36;103593.22;;;2.99;100.00
18900;BME280;9582;52.018;6.306;2023-02-10T10:00:17;103601.44;;;3.14;100.00
18900;BME280;9582;52.018;6.306;2023-02-10T10:02:49;103602.00;;;3.34;100.00
18900;BME280;9582;52.018;6.306;2023-02-10T10:05:28;103603.09;;;3.42;100.00
18900;BME280;9582;52.018;6.306;2023-02-10T10:08:10;103601.09;;;3.62;100.00
18900;BME280;9582;52.018;6.306;2023-02-10T10:10:44;103599.13;;;3.53;100.00
18900;BME280;9582;52.018;6.306;2023-02-10T10:13:14;103602.88;;;3.64;100.00
18900;BME280;9582;52.018;6.306;2023-02-10T10:15:55;103594.34;;;3.67;100.00
18900;BME280;9582;52.018;6.306;2023-02-10T10:18:30;103604.78;;;3.70;100.00
18900;BME280;9582;52.018;6.306;2023-02-10T10:21:06;103610.47;;;3.88;100.00
18900;BME280;9582;52.018;6.306;2023-02-10T10:23:46;103596.25;;;4.05;100.00
18900;BME280;9582;52.018;6.306;2023-02-10T10:26:36;103592.28;;;4.18;100.00
18900;BME280;9582;52.018;6.306;2023-02-10T10:29:19;103595.66;;;4.15;100.00
18900;BME280;9582;52.018;6.306;2023-02-10T10:31:49;103602.56;;;4.15;100.00
18900;BME280;9582;52.018;6.306;2023-02-10T10:34:25;103592.56;;;4.28;100.00
18900;BME280;9582;52.018;6.306;2023-02-10T10:37:11;103601.59;;;4.11;100.00
18900;BME280;9582;52.018;6.306;2023-02-10T10:39:44;103603.06;;;4.34;100.00
18900;BME280;9582;52.018;6.306;2023-02-10T10:42:23;103598.81;;;4.36;100.00
18900;BME280;9582;52.018;6.306;2023-02-10T10:45:02;103601.47;;;4.39;100.00
18900;BME280;9582;52.018;6.306;2023-02-10T10:47:41;103593.63;;;4.36;100.00
18900;BME280;9582;52.018;6.306;2023-02-10T10:50:27;103595.41;;;4.39;100.00
18900;BME280;9582;52.018;6.306;2023-02-10T10:52:57;103588.19;;;4.27;100.00
18900;BME280;9582;52.018;6.306;2023-02-10T10:55:34;103591.19;;;4.42;100.00
18900;BME280;9582;52.018;6.306;2023-02-10T10:58:03;103592.16;;;4.46;100.00
18900;BME280;9582;52.018;6.306;2023-02-10T11:00:49;103597.00;;;4.68;100.00
18900;BME280;9582;52.018;6.306;2023-02-10T11:03:21;103591.19;;;4.78;100.00
18900;BME280;9582;52.018;6.306;2023-02-10T11:05:59;103588.13;;;4.96;100.00
18900;BME280;9582;52.018;6.306;2023-02-10T11:08:30;103593.72;;;5.14;100.00
18900;BME280;9582;52.018;6.306;2023-02-10T11:10:59;103596.81;;;4.96;100.00
18900;BME280;9582;52.018;6.306;2023-02-10T11:13:30;103587.69;;;5.13;100.00
18900;BME280;9582;52.018;6.306;2023-02-10T11:16:00;103586.66;;;5.07;100.00
18900;BME280;9582;52.018;6.306;2023-02-10T11:18:30;103586.94;;;5.19;100.00
18900;BME280;9582;52.018;6.306;2023-02-10T11:20:59;103583.47;;;5.20;100.00
18900;BME280;9582;52.018;6.306;2023-02-10T11:23:36;103579.16;;;5.20;100.00
18900;BME280;9582;52.018;6.306;2023-02-10T11:26:18;103571.84;;;5.42;100.00
18900;BME280;9582;52.018;6.306;2023-02-10T11:28:50;103566.81;;;5.51;100.00
18900;BME280;9582;52.018;6.306;2023-02-10T11:31:26;103551.53;;;5.66;100.00
18900;BME280;9582;52.018;6.306;2023-02-10T11:33:59;103549.25;;;5.82;100.00
18900;BME280;9582;52.018;6.306;2023-02-10T11:36:33;103551.81;;;5.79;100.00
18900;BME280;9582;52.018;6.306;2023-02-10T11:39:04;103553.91;;;5.99;100.00
18900;BME280;9582;52.018;6.306;2023-02-10T11:41:33;103536.81;;;6.11;100.00
18900;BME280;9582;52.018;6.306;2023-02-10T11:44:23;103537.59;;;6.06;100.00
18900;BME280;9582;52.018;6.306;2023-02-10T11:46:54;103540.41;;;6.18;100.00
18900;BME280;9582;52.018;6.306;2023-02-10T11:49:21;103540.38;;;6.15;100.00
18900;BME280;9582;52.018;6.306;2023-02-10T11:51:51;103540.53;;;6.25;100.00
18900;BME280;9582;52.018;6.306;2023-02-10T11:54:24;103541.56;;;6.36;100.00
18900;BME280;9582;52.018;6.306;2023-02-10T11:57:06;103533.06;;;6.47;100.00
18900;BME280;9582;52.018;6.306;2023-02-10T11:59:56;103528.25;;;6.72;100.00
18900;BME280;9582;52.018;6.306;2023-02-10T12:02:35;103515.34;;;6.77;100.00
18900;BME280;9582;52.018;6.306;2023-02-10T12:05:16;103519.56;;;6.70;100.00
18900;BME280;9582;52.018;6.306;2023-02-10T12:07:57;103523.13;;;6.77;100.00
18900;BME280;9582;52.018;6.306;2023-02-10T12:10:33;103518.78;;;6.76;100.00
18900;BME280;9582;52.018;6.306;2023-02-10T12:13:09;103505.84;;;6.82;100.00
18900;BME280;9582;52.018;6.306;2023-02-10T12:15:54;103510.31;;;6.92;100.00
18900;BME280;9582;52.018;6.306;2023-02-10T12:18:40;103501.44;;;6.76;100.00
18900;BME280;9582;52.018;6.306;2023-02-10T12:21:39;103501.34;;;6.69;100.00
18900;BME280;9582;52.018;6.306;2023-02-10T12:24:27;103503.16;;;6.74;100.00
18900;BME280;9582;52.018;6.306;2023-02-10T12:27:03;103511.19;;;6.91;100.00
18900;BME280;9582;52.018;6.306;2023-02-10T12:29:45;103511.19;;;6.92;100.00
18900;BME280;9582;52.018;6.306;2023-02-10T12:32:23;103507.75;;;6.93;100.00
18900;BME280;9582;52.018;6.306;2023-02-10T12:35:15;103503.56;;;7.06;100.00
18900;BME280;9582;52.018;6.306;2023-02-10T12:38:10;103492.34;;;7.12;100.00
18900;BME280;9582;52.018;6.306;2023-02-10T12:40:53;103495.03;;;7.18;100.00
18900;BME280;9582;52.018;6.306;2023-02-10T12:43:38;103489.78;;;7.15;100.00
18900;BME280;9582;52.018;6.306;2023-02-10T12:46:24;103489.81;;;7.18;100.00
18900;BME280;9582;52.018;6.306;2023-02-10T12:49:05;103481.06;;;7.10;100.00
18900;BME280;9582;52.018;6.306;2023-02-10T12:51:47;103479.47;;;7.21;100.00
18900;BME280;9582;52.018;6.306;2023-02-10T12:54:24;103472.59;;;7.29;100.00
18900;BME280;9582;52.018;6.306;2023-02-10T12:57:08;103465.88;;;7.49;100.00
18900;BME280;9582;52.018;6.306;2023-02-10T12:59:43;103465.91;;;7.52;100.00
18900;BME280;9582;52.018;6.306;2023-02-10T13:02:20;103470.16;;;7.42;100.00
18900;BME280;9582;52.018;6.306;2023-02-10T13:04:51;103453.72;;;7.46;100.00
18900;BME280;9582;52.018;6.306;2023-02-10T13:07:30;103456.41;;;7.57;100.00
18900;BME280;9582;52.018;6.306;2023-02-10T13:10:09;103456.50;;;7.66;100.00
18900;BME280;9582;52.018;6.306;2023-02-10T13:12:44;103447.91;;;7.76;100.00
18900;BME280;9582;52.018;6.306;2023-02-10T13:15:18;103456.66;;;7.83;100.00
18900;BME280;9582;52.018;6.306;2023-02-10T13:17:51;103445.41;;;7.87;100.00
18900;BME280;9582;52.018;6.306;2023-02-10T13:20:35;103455.91;;;7.97;100.00
18900;BME280;9582;52.018;6.306;2023-02-10T13:23:15;103451.69;;;8.14;100.00
18900;BME280;9582;52.018;6.306;2023-02-10T13:26:02;103456.06;;;8.16;100.00
18900;BME280;9582;52.018;6.306;2023-02-10T13:28:41;103456.91;;;8.14;100.00
18900;BME280;9582;52.018;6.306;2023-02-10T13:31:25;103448.25;;;8.19;100.00
18900;BME280;9582;52.018;6.306;2023-02-10T13:34:01;103437.84;;;8.20;100.00
18900;BME280;9582;52.018;6.306;2023-02-10T13:36:33;103433.47;;;8.18;100.00